createdAt,value
2023-02-03T00:01:46.921Z,8.90
2023-02-03T00:08:47.469Z,8.90
2023-02-03T00:15:48.031Z,8.90
2023-02-03T00:22:48.487Z,8.90
2023-02-03T00:29:48.872Z,8.90
2023-02-03T00:36:49.288Z,8.90
2023-02-03T00:43:49.888Z,9.00
2023-02-03T00:50:49.966Z,9.00
2023-02-03T00:57:51.269Z,9.00
2023-02-03T01:04:51.742Z,9.00
2023-02-03T01:11:52.209Z,9.00
2023-02-03T01:18:52.722Z,9.10
2023-02-03T01:25:53.261Z,9.10
2023-02-03T01:32:53.750Z,9.10
2023-02-03T01:39:54.337Z,9.10
2023-02-03T01:46:54.462Z,9.10
2023-02-03T01:53:57.362Z,9.10
2023-02-03T02:00:58.772Z,9.10
2023-02-03T02:08:01.714Z,9.10
2023-02-03T02:15:03.075Z,9.00
2023-02-03T02:22:25.401Z,9.00
2023-02-03T02:29:56.512Z,9.00
2023-02-03T02:37:22.562Z,9.00
2023-02-03T02:44:25.496Z,9.00
2023-02-03T02:51:27.775Z,9.00
2023-02-03T02:58:32.013Z,9.00
2023-02-03T03:05:32.503Z,9.00
2023-02-03T03:12:40.329Z,9.00
2023-02-03T03:19:48.324Z,8.90
2023-02-03T03:27:16.546Z,8.90
2023-02-03T03:34:18.117Z,8.90
2023-02-03T03:41:49.489Z,8.90
2023-02-03T03:49:03.003Z,8.90
2023-02-03T03:56:05.760Z,9.00
2023-02-03T04:03:16.735Z,9.00
2023-02-03T04:10:25.476Z,9.00
2023-02-03T04:17:25.891Z,9.00
2023-02-03T04:24:26.294Z,8.90
2023-02-03T04:31:26.797Z,9.00
2023-02-03T04:38:27.045Z,9.00
2023-02-03T04:45:27.600Z,9.00
2023-02-03T04:52:28.104Z,9.00
2023-02-03T04:59:28.313Z,9.00
2023-02-03T05:06:29.990Z,9.00
2023-02-03T05:13:30.409Z,9.00
2023-02-03T05:20:31.084Z,9.00
2023-02-03T05:27:31.593Z,9.00
2023-02-03T05:34:31.951Z,9.00
2023-02-03T05:41:50.915Z,9.00
2023-02-03T05:48:51.476Z,9.00
2023-02-03T05:55:52.239Z,9.00
2023-02-03T06:02:54.002Z,9.00
2023-02-03T06:09:54.152Z,9.00
2023-02-03T06:16:54.519Z,9.00
2023-02-03T06:23:55.843Z,9.00
2023-02-03T06:30:56.170Z,9.00
2023-02-03T06:37:56.331Z,9.00
2023-02-03T06:44:56.814Z,9.00
2023-02-03T06:51:57.117Z,9.00
2023-02-03T06:58:58.692Z,9.00
2023-02-03T07:05:58.853Z,9.00
2023-02-03T07:13:08.857Z,9.10
2023-02-03T07:20:09.864Z,9.10
2023-02-03T07:27:10.231Z,9.00
2023-02-03T07:34:10.890Z,9.10
2023-02-03T07:41:11.342Z,9.10
2023-02-03T07:48:12.356Z,9.10
2023-02-03T07:55:12.939Z,9.10
2023-02-03T08:02:13.144Z,9.10
2023-02-03T08:09:13.788Z,9.10
2023-02-03T08:16:14.255Z,9.10
2023-02-03T08:23:14.666Z,9.10
2023-02-03T08:30:15.187Z,9.10
2023-02-03T08:37:18.611Z,9.10
2023-02-03T08:44:19.853Z,9.10
2023-02-03T08:51:20.469Z,9.20
2023-02-03T08:58:20.877Z,9.10
2023-02-03T09:05:21.243Z,9.00
2023-02-03T09:12:21.516Z,9.00
2023-02-03T09:19:21.841Z,9.00
2023-02-03T09:26:22.303Z,9.10
2023-02-03T09:33:22.644Z,9.10
2023-02-03T09:40:30.355Z,9.10
2023-02-03T09:47:36.275Z,9.10
2023-02-03T09:54:50.089Z,9.00
2023-02-03T10:02:01.281Z,9.00
2023-02-03T10:09:26.216Z,8.90
2023-02-03T10:16:34.418Z,8.90
2023-02-03T10:23:37.725Z,8.80
2023-02-03T10:30:45.513Z,8.80
2023-02-03T10:37:53.781Z,8.70
2023-02-03T10:45:00.493Z,8.70
2023-02-03T10:52:04.826Z,8.60
2023-02-03T10:59:07.218Z,8.60
2023-02-03T11:06:18.206Z,8.60
2023-02-03T11:13:21.349Z,8.60
2023-02-03T11:20:26.406Z,8.70
2023-02-03T11:27:31.504Z,8.70
2023-02-03T11:34:35.029Z,8.80
2023-02-03T11:41:38.841Z,8.90
2023-02-03T11:48:50.238Z,9.00
2023-02-03T11:56:35.189Z,9.10
2023-02-03T12:03:43.998Z,9.20
2023-02-03T12:10:55.290Z,9.20
2023-02-03T12:17:58.480Z,9.20
2023-02-03T12:25:17.386Z,9.30
2023-02-03T12:32:23.675Z,9.30
2023-02-03T12:39:34.049Z,9.40
2023-02-03T12:46:45.152Z,9.40
2023-02-03T12:53:53.050Z,9.40
2023-02-03T13:01:23.293Z,9.40
2023-02-03T13:08:33.528Z,9.40
2023-02-03T13:15:40.095Z,9.40
2023-02-03T13:22:40.129Z,9.40
2023-02-03T13:30:03.598Z,9.40
2023-02-03T13:37:23.201Z,9.50
2023-02-03T13:44:28.418Z,9.50
2023-02-03T13:51:38.580Z,9.60
2023-02-03T13:58:39.710Z,9.70
2023-02-03T14:05:52.130Z,9.80
2023-02-03T14:12:52.049Z,9.80
2023-02-03T14:19:52.257Z,9.90
2023-02-03T14:26:55.091Z,10.00
2023-02-03T14:34:04.347Z,10.00
2023-02-03T14:41:06.390Z,10.00
2023-02-03T14:48:14.481Z,10.10
2023-02-03T14:55:30.353Z,10.10
2023-02-03T15:02:32.317Z,10.20
2023-02-03T15:09:47.136Z,10.20
2023-02-03T15:16:55.194Z,10.20
2023-02-03T15:23:55.989Z,10.20
2023-02-03T15:31:06.547Z,10.20
2023-02-03T15:38:14.349Z,10.10
2023-02-03T15:45:17.479Z,10.10
2023-02-03T15:52:20.964Z,9.80
2023-02-03T15:59:31.753Z,9.50
2023-02-03T16:06:44.917Z,9.20
2023-02-03T16:13:45.810Z,9.00
2023-02-03T16:20:51.169Z,8.90
2023-02-03T16:28:20.385Z,8.80
2023-02-03T16:35:39.252Z,8.80
2023-02-03T16:42:59.186Z,8.80
2023-02-03T16:50:29.283Z,8.80
2023-02-03T16:57:36.992Z,8.70
2023-02-03T17:04:37.374Z,8.70
2023-02-03T17:11:37.875Z,8.80
2023-02-03T17:18:39.184Z,8.70
2023-02-03T17:25:40.167Z,8.70
2023-02-03T17:32:40.381Z,8.70
2023-02-03T17:54:16.592Z,8.80
2023-02-03T18:01:18.566Z,8.80
2023-02-03T18:08:20.560Z,8.70
2023-02-03T18:15:24.631Z,8.70
2023-02-03T18:22:25.001Z,8.70
2023-02-03T18:29:26.807Z,8.60
2023-02-03T18:36:27.148Z,8.60
2023-02-03T18:43:27.436Z,8.60
2023-02-03T18:50:28.201Z,8.60
2023-02-03T18:57:30.165Z,8.60
2023-02-03T19:04:30.526Z,8.50
2023-02-03T19:11:31.080Z,8.50
2023-02-03T19:18:32.828Z,8.50
2023-02-03T19:25:33.124Z,8.40
2023-02-03T19:32:33.586Z,8.40
2023-02-03T19:39:35.041Z,8.40
2023-02-03T19:46:37.384Z,8.40
2023-02-03T19:53:37.928Z,8.50
2023-02-03T20:00:38.745Z,8.50
2023-02-03T20:07:39.492Z,8.60
2023-02-03T20:14:39.920Z,8.70
2023-02-03T20:21:40.301Z,8.70
2023-02-03T20:28:40.693Z,8.70
2023-02-03T20:35:41.178Z,8.70
2023-02-03T20:42:41.682Z,8.70
2023-02-03T20:49:42.640Z,8.70
2023-02-03T20:56:43.747Z,8.70
2023-02-03T21:04:03.259Z,8.70
2023-02-03T21:11:13.806Z,8.70
2023-02-03T21:18:40.290Z,8.70
2023-02-03T21:25:40.560Z,8.60
2023-02-03T21:32:41.192Z,8.60
2023-02-03T21:39:41.891Z,8.60
2023-02-03T21:46:42.270Z,8.60
2023-02-03T21:53:56.067Z,8.60
2023-02-03T22:01:02.185Z,8.60
2023-02-03T22:08:16.849Z,8.60
2023-02-03T22:15:17.559Z,8.50
2023-02-03T22:22:18.174Z,8.50
2023-02-03T22:29:18.814Z,8.50
2023-02-03T22:36:19.339Z,8.50
2023-02-03T22:43:19.917Z,8.50
2023-02-03T22:50:27.103Z,8.40
2023-02-03T22:57:37.902Z,8.40
2023-02-03T23:04:38.040Z,8.40
2023-02-03T23:11:38.430Z,8.30
2023-02-03T23:18:39.037Z,8.30
2023-02-03T23:25:39.985Z,8.30
2023-02-03T23:32:40.622Z,8.40
2023-02-03T23:39:41.134Z,8.30
2023-02-03T23:46:41.741Z,8.30
2023-02-03T23:53:42.097Z,8.30
